Cavalier, ND

5:21 PM CDT on August 21, 2014 (GMT -0500)
Cavalier | Change Station
CLOSE
Current Station
Airport
Location: Cavalier,
Elevation: 892 ft
Nearby Weather Stations

Elev 892 ft 48.78 °N, 97.63 °W | Updated 6 minutes ago

Overcast
Overcast
73 °F
Feels Like 73 °F
N
5
Wind Variable Wind from ENE

Today
High -- | Low -- °F
--% Chance of Precip.
Yesterday
High -- | Low -- °F
Precip. -- in
6:31 AM 8:34 PM
Waning Crescent, 12% visible
Pressure 29.82 in
Visibility 10.0 miles
Clouds Overcast 1800 ft
Dew Point 66 °F
Humidity 78%
Rainfall 0.00 in
Snow Depth Not available.
UV 1 out of 12
Pollen 6.30 out of 12
Air Quality Not available.
Flu Activity Not available.
METAR K2C8 212215Z AUTO 07004KT 10SM OVC018 23/19 A2982 RMK AO2 LTG DSNT N AND NW

More Conditions Fewer Conditions

Pressure 29.82 in
Visibility 10.0 miles
Clouds Overcast 1800 ft
Dew Point 66 °F
Humidity 78%
Rainfall 0.00 in
Snow Depth Not available.
UV 1 out of 12
Pollen 6.30 out of 12
Air Quality Not available.
Flu Activity Not available.
METAR K2C8 212215Z AUTO 07004KT 10SM OVC018 23/19 A2982 RMK AO2 LTG DSNT N AND NW

More Conditions Fewer Conditions

10-Day Weather Forecast

Almanac

Astronomy

Aug. 21, 2014 Rise Set
Actual Time 6:31 AM CDT 8:34 PM CDT
Civil Twilight 5:57 AM CDT 9:08 PM CDT
Nautical Twilight 5:15 AM CDT 9:50 PM CDT
Astronomical Twilight 4:28 AM CDT 10:37 PM CDT
Moon 2:55 AM CDT 6:11 PM CDT
Length of Visible Light 15h 10m
Length of Day
14h 02m
Tomorrow will be 3m 19s shorter.
Waning Crescent, 12% of the Moon is Illuminated
Today
Waning Crescent
Aug 25
New
Sep 2
First Quarter
Sep 8
Full
Sep 15
Last Quarter

Today's Extremes

State Highs State Lows

Community

WunderPhotos

Upload Photos

1,746,038 photos uploaded!

WunderBlogs® & News

Nearby

Snow Depth

Station Depth Elevation
No new snow has been reported.

Earthquake Activity

City Distance Mag. Time & Date
No recent earthquake activity has been reported nearby.
Minimum magnitude displayed is 2.5.

Coastal Water Temperatures

Place Temperature
No Stations Reporting

Nearby Weather Stations